Time;durP1;ratioP1;P1;durP2;ratioP2;P2;SDS_P1;SDS_P2;PMS_P1;PMS_P2;Temp;Humidity;BMP_temperature;BMP_pressure;BME280_temperature;BME280_humidity;BME280_pressure;Samples;Min_cycle;Max_cycle;Signal;HPM_P1;HPM_P2
2023/04/29 00:01:51;;;;;;;40.38;8.00;;;17.10;96.20;;;;;;5048073;28;20025;-54
2023/04/29 00:04:17;;;;;;;41.75;8.48;;;17.20;96.30;;;;;;5046231;28;20366;-55
2023/04/29 00:06:43;;;;;;;26.75;7.55;;;17.10;96.20;;;;;;5047614;28;20095;-54
2023/04/29 00:09:08;;;;;;;46.83;8.60;;;17.10;96.20;;;;;;5047570;28;20022;-55
2023/04/29 00:11:34;;;;;;;32.92;6.80;;;17.10;96.20;;;;;;5047735;28;20404;-54
2023/04/29 00:14:00;;;;;;;28.88;7.40;;;17.10;96.20;;;;;;5047455;28;20021;-55
2023/04/29 00:16:25;;;;;;;35.28;7.38;;;17.10;96.20;;;;;;5047410;28;20040;-54
2023/04/29 00:18:51;;;;;;;35.60;7.22;;;17.10;96.20;;;;;;5047334;28;20025;-54
2023/04/29 00:21:17;;;;;;;28.75;7.38;;;17.10;96.10;;;;;;5047452;28;20044;-54
2023/04/29 00:23:42;;;;;;;29.67;7.38;;;17.10;96.30;;;;;;5047199;28;20038;-55
2023/04/29 00:26:08;;;;;;;27.40;6.90;;;17.10;95.90;;;;;;5047584;28;20036;-55
2023/04/29 00:28:33;;;;;;;25.55;6.95;;;17.10;95.90;;;;;;5047359;28;20396;-55
2023/04/29 00:30:59;;;;;;;25.52;7.07;;;17.10;96.20;;;;;;5047423;28;20047;-54
2023/04/29 00:33:25;;;;;;;23.77;5.95;;;17.10;95.90;;;;;;5047200;28;20033;-54
2023/04/29 00:35:50;;;;;;;31.55;6.82;;;17.10;95.90;;;;;;5047235;28;20029;-54
2023/04/29 00:38:16;;;;;;;28.20;7.50;;;17.10;96.20;;;;;;5046951;28;20030;-55
2023/04/29 00:40:42;;;;;;;31.77;6.90;;;17.10;95.90;;;;;;5045239;28;20040;-55
2023/04/29 00:43:08;;;;;;;27.13;6.88;;;17.00;95.90;;;;;;5046841;28;20025;-54
2023/04/29 00:45:33;;;;;;;28.23;7.38;;;17.00;96.00;;;;;;5029028;28;20060;-55
2023/04/29 00:48:01;;;;;;;25.88;7.18;;;17.00;96.30;;;;;;5046921;28;20028;-55
2023/04/29 00:50:26;;;;;;;30.88;6.68;;;17.00;96.00;;;;;;5045372;28;20030;-55
2023/04/29 00:52:52;;;;;;;29.15;7.22;;;17.00;96.00;;;;;;5046899;28;20032;-55
2023/04/29 00:55:17;;;;;;;29.92;6.75;;;17.00;96.00;;;;;;5045505;28;20059;-55
2023/04/29 00:57:46;;;;;;;29.02;6.22;;;17.00;96.30;;;;;;5046660;28;20120;-55
2023/04/29 01:00:13;;;;;;;15.88;5.90;;;17.00;96.00;;;;;;5046339;28;20143;-54
2023/04/29 01:02:38;;;;;;;25.40;6.60;;;17.00;96.00;;;;;;5046750;28;20045;-54
2023/04/29 01:05:04;;;;;;;26.92;5.95;;;17.00;96.00;;;;;;5045087;28;20048;-54
2023/04/29 01:07:51;;;;;;;25.58;5.68;;;17.00;96.00;;;;;;5045099;28;20022;-55
2023/04/29 01:10:31;;;;;;;30.65;6.35;;;16.90;95.90;;;;;;5045173;28;20153;-55
2023/04/29 01:13:16;;;;;;;22.35;5.78;;;16.90;96.00;;;;;;5045354;28;20021;-54
2023/04/29 01:16:02;;;;;;;22.33;6.43;;;16.90;96.00;;;;;;5045183;28;20037;-55
2023/04/29 01:18:42;;;;;;;25.50;5.75;;;16.90;96.10;;;;;;5046250;28;20084;-54
2023/04/29 01:21:08;;;;;;;28.67;6.03;;;16.90;96.10;;;;;;5045007;28;20048;-55
2023/04/29 01:23:34;;;;;;;23.48;6.03;;;16.90;96.10;;;;;;5046350;28;20096;-55
2023/04/29 01:25:59;;;;;;;23.92;6.00;;;16.90;96.30;;;;;;5046095;28;20041;-54
2023/04/29 01:28:49;;;;;;;28.80;6.75;;;16.90;95.90;;;;;;5046070;28;20029;-55
2023/04/29 01:31:19;;;;;;;21.60;6.30;;;17.00;96.20;;;;;;5044889;28;20033;-54
2023/04/29 01:34:03;;;;;;;19.40;5.50;;;16.90;95.90;;;;;;5044833;28;20059;-55
2023/04/29 01:36:32;;;;;;;20.85;4.88;;;16.90;95.90;;;;;;5046162;28;20029;-55
2023/04/29 01:39:13;;;;;;;25.70;6.22;;;16.90;95.90;;;;;;5044654;28;20179;-55
2023/04/29 01:41:44;;;;;;;17.83;5.00;;;16.90;95.90;;;;;;5044761;28;20033;-54
2023/04/29 01:44:17;;;;;;;22.60;5.65;;;16.90;96.00;;;;;;5044520;28;20029;-55
2023/04/29 01:46:47;;;;;;;18.65;5.65;;;16.80;96.20;;;;;;5044468;28;20060;-55
2023/04/29 01:49:13;;;;;;;15.13;5.30;;;16.90;95.90;;;;;;5044175;28;20085;-55
2023/04/29 01:51:38;;;;;;;18.30;6.00;;;16.90;95.90;;;;;;5045535;28;20029;-54
2023/04/29 01:54:04;;;;;;;23.40;5.68;;;16.90;95.90;;;;;;5045493;28;20033;-55
2023/04/29 01:56:29;;;;;;;21.77;5.30;;;16.80;95.90;;;;;;5045678;28;20067;-55
2023/04/29 01:58:55;;;;;;;20.92;5.30;;;16.90;95.90;;;;;;5045435;28;20037;-54
2023/04/29 02:01:21;;;;;;;20.13;4.85;;;16.80;95.80;;;;;;5044103;28;20053;-55
2023/04/29 02:03:46;;;;;;;25.13;5.90;;;16.80;95.90;;;;;;5045420;28;20029;-55
2023/04/29 02:06:12;;;;;;;23.77;5.07;;;16.80;95.90;;;;;;5045282;28;20079;-55
2023/04/29 02:08:37;;;;;;;14.10;5.00;;;16.80;95.90;;;;;;5044148;28;20029;-55
2023/04/29 02:11:03;;;;;;;23.60;5.15;;;16.90;95.80;;;;;;5045443;28;20022;-55
2023/04/29 02:13:28;;;;;;;24.33;5.65;;;16.90;95.80;;;;;;5045593;28;20026;-55
2023/04/29 02:15:54;;;;;;;16.52;5.88;;;16.90;95.70;;;;;;5045327;28;20026;-55
2023/04/29 02:18:20;;;;;;;16.35;5.90;;;16.80;95.60;;;;;;5045243;28;20148;-55
2023/04/29 02:20:45;;;;;;;18.15;6.13;;;16.80;95.60;;;;;;5045167;28;20034;-55
2023/04/29 02:23:11;;;;;;;16.67;6.85;;;16.90;95.60;;;;;;5045251;28;20049;-55
2023/04/29 02:25:37;;;;;;;23.40;6.43;;;16.90;95.60;;;;;;5045030;28;20158;-55
2023/04/29 02:28:02;;;;;;;15.65;6.32;;;16.80;95.60;;;;;;5045182;28;20029;-55
2023/04/29 02:30:29;;;;;;;22.88;6.57;;;16.80;95.90;;;;;;5044620;28;20025;-55
2023/04/29 02:32:54;;;;;;;19.42;5.93;;;16.80;95.60;;;;;;5047274;28;20034;-55
2023/04/29 02:35:20;;;;;;;17.55;6.68;;;16.90;95.60;;;;;;5043752;28;20079;-55
2023/04/29 02:37:46;;;;;;;22.42;6.22;;;16.80;95.60;;;;;;5045050;28;20047;-55
2023/04/29 02:40:12;;;;;;;17.92;6.00;;;16.90;95.60;;;;;;5043242;28;20097;-55
2023/04/29 02:42:37;;;;;;;15.45;6.13;;;16.80;95.60;;;;;;5044719;28;20044;-55
2023/04/29 02:45:03;;;;;;;23.33;5.85;;;16.80;95.60;;;;;;5044786;28;20037;-55
2023/04/29 02:47:29;;;;;;;15.35;4.75;;;16.80;95.60;;;;;;5044673;28;20041;-54
2023/04/29 02:49:54;;;;;;;17.77;5.30;;;16.80;95.60;;;;;;5044817;28;20048;-54
2023/04/29 02:52:20;;;;;;;13.63;5.75;;;16.80;96.00;;;;;;5044816;28;20470;-55
2023/04/29 02:54:45;;;;;;;16.30;5.72;;;16.80;95.70;;;;;;5044659;28;20087;-55
2023/04/29 02:57:11;;;;;;;15.80;5.70;;;16.80;96.00;;;;;;5044752;28;20045;-55
2023/04/29 02:59:37;;;;;;;13.10;4.28;;;16.80;95.70;;;;;;5044615;28;20454;-55
2023/04/29 03:02:02;;;;;;;14.60;5.15;;;16.80;95.70;;;;;;5026373;28;20097;-55
2023/04/29 03:04:28;;;;;;;17.33;5.13;;;16.80;95.80;;;;;;5044549;28;20033;-55
2023/04/29 03:06:55;;;;;;;18.77;5.70;;;16.80;95.90;;;;;;5044650;28;20033;-55
2023/04/29 03:09:22;;;;;;;19.33;4.93;;;16.80;95.80;;;;;;5044827;28;20033;-55
2023/04/29 03:11:48;;;;;;;12.57;4.50;;;16.80;95.80;;;;;;5044652;28;20033;-54
2023/04/29 03:14:13;;;;;;;17.30;5.15;;;16.80;95.90;;;;;;5044609;28;20089;-55
2023/04/29 03:16:39;;;;;;;15.40;5.55;;;16.80;96.30;;;;;;5044477;28;20085;-54
2023/04/29 03:19:05;;;;;;;16.27;5.15;;;16.80;96.20;;;;;;5042941;28;20097;-55
2023/04/29 03:21:31;;;;;;;14.15;4.65;;;16.80;96.00;;;;;;5044543;28;20128;-55
2023/04/29 03:23:57;;;;;;;10.20;4.32;;;16.80;96.00;;;;;;5046560;28;20034;-55
2023/04/29 03:26:23;;;;;;;15.15;5.38;;;16.80;95.90;;;;;;5048361;28;20032;-55
2023/04/29 03:28:49;;;;;;;14.38;4.97;;;16.80;95.90;;;;;;5046866;28;20025;-54
2023/04/29 03:31:15;;;;;;;14.95;4.85;;;16.80;96.10;;;;;;5048486;28;20026;-55
2023/04/29 03:33:41;;;;;;;18.17;5.50;;;16.80;96.10;;;;;;5048225;28;20025;-55
2023/04/29 03:36:07;;;;;;;11.02;5.28;;;16.80;96.30;;;;;;5048268;28;20033;-55
2023/04/29 03:38:33;;;;;;;13.75;6.18;;;16.80;96.30;;;;;;5046884;28;20489;-55
2023/04/29 03:40:59;;;;;;;19.63;6.43;;;16.80;96.30;;;;;;5046927;28;20097;-55
2023/04/29 03:43:25;;;;;;;24.42;6.55;;;16.80;96.40;;;;;;5048042;28;20033;-55
2023/04/29 03:45:50;;;;;;;19.90;7.05;;;16.80;96.40;;;;;;5046654;28;20029;-55
2023/04/29 03:48:16;;;;;;;46.63;10.15;;;16.70;96.40;;;;;;5048097;28;20022;-54
2023/04/29 03:50:41;;;;;;;61.58;11.00;;;16.70;96.80;;;;;;5048024;28;20035;-55
2023/04/29 03:53:07;;;;;;;30.38;8.13;;;16.70;96.60;;;;;;5046838;28;20028;-55
2023/04/29 03:55:33;;;;;;;19.58;8.05;;;16.70;96.70;;;;;;5047717;28;20137;-55
2023/04/29 03:57:59;;;;;;;23.10;7.30;;;16.70;96.60;;;;;;5048004;28;20026;-55
2023/04/29 04:00:25;;;;;;;24.90;6.85;;;16.70;96.60;;;;;;5046348;28;20036;-55
2023/04/29 04:02:52;;;;;;;15.32;7.20;;;16.70;96.60;;;;;;5046602;28;20057;-55
2023/04/29 04:05:23;;;;;;;18.42;6.75;;;16.70;96.60;;;;;;5047554;28;20033;-55
2023/04/29 04:07:50;;;;;;;24.48;6.57;;;16.70;96.60;;;;;;5047710;28;20025;-55
2023/04/29 04:10:16;;;;;;;22.13;6.93;;;16.70;96.60;;;;;;5047631;28;20025;-55
2023/04/29 04:12:43;;;;;;;33.85;8.10;;;16.70;96.60;;;;;;5047457;28;20434;-55
2023/04/29 04:15:08;;;;;;;22.50;7.50;;;16.70;96.80;;;;;;5047521;28;20030;-55
2023/04/29 04:17:34;;;;;;;31.48;7.65;;;16.70;96.80;;;;;;5047525;28;20087;-54
2023/04/29 04:20:01;;;;;;;32.30;7.45;;;16.60;96.80;;;;;;5047215;28;20033;-55
2023/04/29 04:22:26;;;;;;;32.25;7.47;;;16.70;96.80;;;;;;5046200;28;20109;-55
2023/04/29 04:24:55;;;;;;;33.90;7.50;;;16.70;96.90;;;;;;5047238;28;20421;-55
2023/04/29 04:27:21;;;;;;;37.47;7.90;;;16.60;96.90;;;;;;5047249;28;20086;-55
2023/04/29 04:29:46;;;;;;;32.28;7.13;;;16.60;96.90;;;;;;5045753;28;20038;-55
2023/04/29 04:32:12;;;;;;;25.77;6.75;;;16.60;97.00;;;;;;5047379;28;20038;-55
2023/04/29 04:34:40;;;;;;;31.90;6.47;;;16.70;97.00;;;;;;5046507;28;20033;-55
2023/04/29 04:37:07;;;;;;;29.20;6.70;;;16.70;96.90;;;;;;5047066;28;20025;-54
2023/04/29 04:39:32;;;;;;;18.20;6.03;;;16.60;96.90;;;;;;5045902;28;20109;-55
2023/04/29 04:41:58;;;;;;;21.02;7.05;;;16.60;96.90;;;;;;5045694;28;20057;-55
2023/04/29 04:44:23;;;;;;;21.60;6.78;;;16.60;96.90;;;;;;5046993;28;20045;-55
2023/04/29 04:46:52;;;;;;;22.67;6.60;;;16.60;96.90;;;;;;5047123;28;20095;-55
2023/04/29 04:49:18;;;;;;;20.95;5.65;;;16.60;96.90;;;;;;5045834;28;20143;-55
2023/04/29 04:51:44;;;;;;;37.70;6.70;;;16.60;97.20;;;;;;5045763;28;20029;-54
2023/04/29 04:54:10;;;;;;;16.63;6.07;;;16.60;97.40;;;;;;5047044;28;20030;-54
2023/04/29 04:56:36;;;;;;;21.02;5.78;;;16.60;97.30;;;;;;5046982;28;20037;-55
2023/04/29 04:59:02;;;;;;;14.98;5.75;;;16.60;97.10;;;;;;5046836;28;20033;-54
2023/04/29 05:01:28;;;;;;;26.58;5.70;;;16.60;97.30;;;;;;5046724;28;20360;-55
2023/04/29 05:03:54;;;;;;;22.25;5.93;;;16.60;96.90;;;;;;5046721;28;20025;-55
2023/04/29 05:06:20;;;;;;;26.90;5.45;;;16.70;96.90;;;;;;5046616;28;20025;-55
2023/04/29 05:08:45;;;;;;;29.63;5.68;;;16.60;96.80;;;;;;5046568;28;20040;-55
2023/04/29 05:11:18;;;;;;;14.98;4.97;;;16.60;96.90;;;;;;5046542;28;20033;-55
2023/04/29 05:13:44;;;;;;;14.15;5.10;;;16.60;97.20;;;;;;5046566;28;20101;-55
2023/04/29 05:16:09;;;;;;;25.98;5.03;;;16.60;97.20;;;;;;5046512;28;20053;-55
2023/04/29 05:18:35;;;;;;;25.60;5.80;;;16.60;97.30;;;;;;5046516;28;20045;-55
2023/04/29 05:21:00;;;;;;;18.42;5.93;;;16.60;97.30;;;;;;5044941;28;20068;-55
2023/04/29 05:23:26;;;;;;;22.65;5.25;;;16.60;97.30;;;;;;5046418;28;20025;-55
2023/04/29 05:25:52;;;;;;;17.30;4.43;;;16.60;97.40;;;;;;5046111;28;20219;-55
2023/04/29 05:28:18;;;;;;;13.30;4.68;;;16.60;97.50;;;;;;5046145;28;20112;-54
2023/04/29 05:30:43;;;;;;;20.42;5.15;;;16.60;97.50;;;;;;5046182;28;20026;-55
2023/04/29 05:33:10;;;;;;;19.33;4.60;;;16.60;97.50;;;;;;5046005;28;20022;-55
2023/04/29 05:35:36;;;;;;;19.10;4.95;;;16.60;97.50;;;;;;5047615;28;20042;-55
2023/04/29 05:38:01;;;;;;;17.20;5.00;;;16.60;97.50;;;;;;5046014;28;20056;-55
2023/04/29 05:40:27;;;;;;;18.77;5.05;;;16.60;97.50;;;;;;5045954;28;20037;-55
2023/04/29 05:42:53;;;;;;;12.52;4.63;;;16.50;97.40;;;;;;5044545;28;20491;-55
2023/04/29 05:45:18;;;;;;;15.10;5.03;;;16.60;97.50;;;;;;5045646;28;20061;-55
2023/04/29 05:47:44;;;;;;;20.50;4.88;;;16.50;97.40;;;;;;5045366;28;20422;-55
2023/04/29 05:50:10;;;;;;;17.42;4.28;;;16.50;97.40;;;;;;5044727;28;20034;-55
2023/04/29 05:52:36;;;;;;;11.95;4.68;;;16.50;97.40;;;;;;5045636;28;20041;-55
2023/04/29 05:55:01;;;;;;;17.33;4.57;;;16.50;97.40;;;;;;5045289;28;20037;-55
2023/04/29 05:57:27;;;;;;;11.35;4.07;;;16.50;97.40;;;;;;5045788;28;20029;-55
2023/04/29 05:59:54;;;;;;;13.00;4.25;;;16.50;97.40;;;;;;5045535;28;20026;-55
2023/04/29 06:02:19;;;;;;;12.00;4.13;;;16.50;97.70;;;;;;5045416;28;20167;-55
2023/04/29 06:04:46;;;;;;;13.43;3.95;;;16.50;97.30;;;;;;5045676;28;20030;-54
2023/04/29 06:07:12;;;;;;;13.18;3.72;;;16.50;97.20;;;;;;5045541;28;20044;-55
2023/04/29 06:09:38;;;;;;;8.30;3.63;;;16.60;97.10;;;;;;5045287;28;20033;-55
2023/04/29 06:12:04;;;;;;;7.40;3.85;;;16.60;97.10;;;;;;5043897;28;20102;-55
2023/04/29 06:14:29;;;;;;;16.20;4.15;;;16.60;97.00;;;;;;5045192;28;20021;-55
2023/04/29 06:16:55;;;;;;;10.18;4.00;;;16.60;97.00;;;;;;5045498;28;20037;-55
2023/04/29 06:19:21;;;;;;;14.00;3.78;;;16.50;96.90;;;;;;5044004;28;20470;-55
2023/04/29 06:21:46;;;;;;;8.10;3.25;;;16.60;96.90;;;;;;5045544;28;20021;-55
2023/04/29 06:24:12;;;;;;;11.57;3.35;;;16.60;96.80;;;;;;5045128;28;20029;-55
2023/04/29 06:26:37;;;;;;;12.27;4.55;;;16.60;96.80;;;;;;5045082;28;20112;-55
2023/04/29 06:29:03;;;;;;;11.88;4.20;;;16.60;96.70;;;;;;5045232;28;20037;-54
2023/04/29 06:31:29;;;;;;;9.85;3.70;;;16.60;96.70;;;;;;5045148;28;20084;-55
2023/04/29 06:33:54;;;;;;;12.25;4.00;;;16.60;96.70;;;;;;5043477;28;20026;-54
2023/04/29 06:36:20;;;;;;;11.40;3.72;;;16.60;96.60;;;;;;5045110;28;20033;-55
2023/04/29 06:38:45;;;;;;;12.38;4.13;;;16.60;96.60;;;;;;5044987;28;20049;-55
2023/04/29 06:41:11;;;;;;;9.75;3.78;;;16.60;96.50;;;;;;5044925;28;20048;-55
2023/04/29 06:43:36;;;;;;;7.97;3.47;;;16.60;96.40;;;;;;5042911;28;20073;-55
2023/04/29 06:46:02;;;;;;;10.85;3.60;;;16.60;96.40;;;;;;5044895;28;20034;-54
2023/04/29 06:48:28;;;;;;;10.68;3.35;;;16.70;96.40;;;;;;5043521;28;20074;-55
2023/04/29 06:50:54;;;;;;;12.07;3.80;;;16.60;96.30;;;;;;5044756;28;20029;-55
2023/04/29 06:53:20;;;;;;;9.52;3.70;;;16.70;96.30;;;;;;5044823;28;20076;-55
2023/04/29 06:55:46;;;;;;;9.55;3.22;;;16.70;96.60;;;;;;5026942;28;20450;-55
2023/04/29 06:58:13;;;;;;;11.48;3.63;;;16.70;96.50;;;;;;5043018;28;20026;-55
2023/04/29 07:00:40;;;;;;;7.72;3.40;;;16.70;96.50;;;;;;5044719;28;20091;-55
2023/04/29 07:03:07;;;;;;;12.18;3.22;;;16.70;96.20;;;;;;5043228;28;20030;-54
2023/04/29 07:05:32;;;;;;;9.38;3.33;;;16.70;96.40;;;;;;5044542;28;20110;-55
2023/04/29 07:07:58;;;;;;;15.27;3.63;;;16.70;96.10;;;;;;5044592;28;20025;-55
2023/04/29 07:10:25;;;;;;;8.85;3.65;;;16.80;96.10;;;;;;5044883;28;20033;-55
2023/04/29 07:12:50;;;;;;;12.48;3.40;;;16.80;96.00;;;;;;5044606;28;20032;-55
2023/04/29 07:15:16;;;;;;;7.72;3.83;;;16.80;96.00;;;;;;5043342;28;20041;-55
2023/04/29 07:17:42;;;;;;;15.00;3.83;;;16.80;95.90;;;;;;5044680;28;20044;-55
2023/04/29 07:20:08;;;;;;;12.52;3.92;;;16.80;95.90;;;;;;5042897;28;20092;-55
2023/04/29 07:22:33;;;;;;;8.20;3.55;;;16.80;95.90;;;;;;5043222;28;20470;-55
2023/04/29 07:24:59;;;;;;;9.50;3.78;;;16.90;95.90;;;;;;5045743;28;20026;-54
2023/04/29 07:27:25;;;;;;;6.05;2.85;;;16.90;95.90;;;;;;5044847;28;20029;-55
2023/04/29 07:29:50;;;;;;;7.82;3.03;;;16.90;95.90;;;;;;5044454;28;20040;-55
2023/04/29 07:32:16;;;;;;;5.97;3.05;;;16.90;95.80;;;;;;5044499;28;20041;-55
2023/04/29 07:34:42;;;;;;;6.18;2.95;;;16.90;95.80;;;;;;5044529;28;20033;-55
2023/04/29 07:37:08;;;;;;;11.82;3.30;;;16.90;95.80;;;;;;5044203;28;20480;-55
2023/04/29 07:39:35;;;;;;;8.68;3.53;;;17.00;95.80;;;;;;5044334;28;20022;-55
2023/04/29 07:42:02;;;;;;;9.18;3.35;;;17.00;95.70;;;;;;5044231;28;20164;-55
2023/04/29 07:44:27;;;;;;;11.00;3.65;;;17.00;95.90;;;;;;5044160;28;20040;-54
2023/04/29 07:46:53;;;;;;;10.02;3.05;;;17.00;95.80;;;;;;5044376;28;20057;-55
2023/04/29 07:49:19;;;;;;;5.00;2.67;;;17.10;95.50;;;;;;5044629;28;20434;-55
2023/04/29 07:51:44;;;;;;;7.28;3.15;;;17.10;95.50;;;;;;5044137;28;20045;-55
2023/04/29 07:54:10;;;;;;;7.75;3.20;;;17.10;95.50;;;;;;5042750;28;20183;-55
2023/04/29 07:56:35;;;;;;;6.18;3.40;;;17.20;95.50;;;;;;5044268;28;20052;-55
2023/04/29 07:59:01;;;;;;;11.15;3.42;;;17.20;95.50;;;;;;5044242;28;20025;-55
2023/04/29 08:01:30;;;;;;;8.45;3.13;;;17.20;95.40;;;;;;5044125;28;20038;-55
2023/04/29 08:03:55;;;;;;;8.30;3.15;;;17.20;95.40;;;;;;5043982;28;20029;-55
2023/04/29 08:06:21;;;;;;;6.95;3.28;;;17.30;95.40;;;;;;5042557;28;20072;-55
2023/04/29 08:08:50;;;;;;;5.47;3.05;;;17.30;95.30;;;;;;5044070;28;20132;-55
2023/04/29 08:11:19;;;;;;;8.40;2.80;;;17.30;95.40;;;;;;5047613;28;20056;-55
2023/04/29 08:13:45;;;;;;;11.90;2.92;;;17.40;95.50;;;;;;5047778;28;20089;-55
2023/04/29 08:16:11;;;;;;;5.28;2.42;;;17.40;95.60;;;;;;5047431;28;20029;-55
2023/04/29 08:18:36;;;;;;;13.15;2.60;;;17.40;95.60;;;;;;5046144;28;20037;-55
2023/04/29 08:21:02;;;;;;;4.28;2.47;;;17.40;96.10;;;;;;5047583;28;20121;-55
2023/04/29 08:23:28;;;;;;;9.65;3.10;;;17.50;95.80;;;;;;5047440;28;20095;-55
2023/04/29 08:25:54;;;;;;;10.50;2.60;;;17.50;95.80;;;;;;5047076;28;20071;-55
2023/04/29 08:28:21;;;;;;;29.67;4.80;;;17.50;95.80;;;;;;5045670;28;20056;-55
2023/04/29 08:30:46;;;;;;;38.25;4.90;;;17.60;96.10;;;;;;5046958;28;20036;-55
2023/04/29 08:33:13;;;;;;;13.18;3.08;;;17.60;96.20;;;;;;5045840;28;20037;-54
2023/04/29 08:35:39;;;;;;;20.52;3.58;;;17.60;96.30;;;;;;5047360;28;20108;-55
2023/04/29 08:38:05;;;;;;;43.80;4.95;;;17.60;96.30;;;;;;5047046;28;20223;-55
2023/04/29 08:40:36;;;;;;;158.93;15.05;;;17.60;96.30;;;;;;5047047;28;20036;-55
2023/04/29 08:43:02;;;;;;;86.85;11.40;;;17.60;96.60;;;;;;5045230;28;20038;-55
2023/04/29 08:45:28;;;;;;;87.93;11.30;;;17.70;96.90;;;;;;5046515;28;20108;-55
2023/04/29 08:47:56;;;;;;;53.90;7.10;;;17.70;97.10;;;;;;5046845;28;20189;-55
2023/04/29 08:50:21;;;;;;;179.93;17.67;;;17.70;97.30;;;;;;5046695;28;20085;-55
2023/04/29 08:52:48;;;;;;;54.80;7.20;;;17.80;97.30;;;;;;5061848;28;20045;-55
2023/04/29 08:55:14;;;;;;;56.53;7.75;;;17.80;97.40;;;;;;5046449;28;20057;-55
2023/04/29 08:57:39;;;;;;;193.48;16.98;;;17.80;97.20;;;;;;5044982;28;20052;-55
2023/04/29 09:00:07;;;;;;;108.97;13.73;;;17.80;96.90;;;;;;5046545;28;20096;-55
2023/04/29 09:02:34;;;;;;;61.60;7.10;;;17.90;96.90;;;;;;5044796;28;20077;-55
2023/04/29 09:05:10;;;;;;;55.13;6.68;;;17.90;96.50;;;;;;5044882;28;20091;-55
2023/04/29 09:07:37;;;;;;;35.70;5.55;;;17.90;96.60;;;;;;5044946;28;20034;-55
2023/04/29 09:10:07;;;;;;;49.47;5.18;;;17.90;96.40;;;;;;5044838;28;20164;-55
2023/04/29 09:12:35;;;;;;;79.28;9.93;;;18.00;96.40;;;;;;5046196;28;20155;-55
2023/04/29 09:15:00;;;;;;;72.47;9.82;;;18.00;96.70;;;;;;5044963;28;20037;-55
2023/04/29 09:17:47;;;;;;;74.85;8.73;;;18.10;97.20;;;;;;5051666;28;20095;-55
2023/04/29 09:20:22;;;;;;;81.25;9.00;;;18.10;97.10;;;;;;5045904;28;20040;-55
2023/04/29 09:22:58;;;;;;;70.93;7.60;;;18.20;96.80;;;;;;5045962;28;20029;-55
2023/04/29 09:25:25;;;;;;;94.53;10.93;;;18.10;96.40;;;;;;5045833;28;20049;-55
2023/04/29 09:27:50;;;;;;;101.55;10.32;;;18.20;96.50;;;;;;5045787;28;20056;-55
2023/04/29 09:30:18;;;;;;;145.57;14.77;;;18.30;96.80;;;;;;5045717;28;20025;-55
2023/04/29 09:32:44;;;;;;;83.53;9.43;;;18.30;96.70;;;;;;5046017;28;20018;-55
2023/04/29 09:35:26;;;;;;;150.85;17.10;;;18.40;96.70;;;;;;5045821;28;20041;-55
2023/04/29 09:37:55;;;;;;;157.23;15.73;;;18.40;96.70;;;;;;5044219;28;20033;-55
2023/04/29 09:40:29;;;;;;;156.23;16.00;;;18.40;96.90;;;;;;5045653;28;20064;-55
2023/04/29 09:42:55;;;;;;;83.28;11.88;;;18.50;96.80;;;;;;5045768;28;20029;-55
2023/04/29 09:45:37;;;;;;;123.88;15.45;;;18.50;96.80;;;;;;5045473;28;20055;-55
2023/04/29 09:48:06;;;;;;;116.03;13.05;;;18.60;96.80;;;;;;5045517;28;20033;-55
2023/04/29 09:50:31;;;;;;;305.83;29.42;;;18.60;96.70;;;;;;5045510;28;20497;-55
2023/04/29 09:52:58;;;;;;;248.18;21.73;;;18.60;96.70;;;;;;5043506;28;20030;-55
2023/04/29 09:55:24;;;;;;;156.77;17.40;;;18.60;96.70;;;;;;5045427;28;20041;-55
2023/04/29 09:57:49;;;;;;;118.05;14.85;;;18.70;96.70;;;;;;5044047;28;20041;-55
2023/04/29 10:00:15;;;;;;;170.40;17.27;;;18.70;96.70;;;;;;5045329;28;20112;-55
2023/04/29 10:02:41;;;;;;;202.10;23.35;;;18.70;96.50;;;;;;5043849;28;20119;-55
2023/04/29 10:05:07;;;;;;;231.35;22.58;;;18.70;96.50;;;;;;5045162;28;20164;-55
2023/04/29 10:07:32;;;;;;;186.55;18.30;;;18.80;96.50;;;;;;5045183;28;20034;-55
2023/04/29 10:09:58;;;;;;;128.98;15.68;;;18.80;96.50;;;;;;5045078;28;20021;-55
2023/04/29 10:12:24;;;;;;;113.75;14.10;;;18.80;96.30;;;;;;5043476;28;20033;-55
2023/04/29 10:15:02;;;;;;;139.32;15.10;;;18.80;96.10;;;;;;5043715;28;20450;-55
2023/04/29 10:17:48;;;;;;;144.00;14.90;;;18.90;96.00;;;;;;5044929;28;20088;-55
2023/04/29 10:20:23;;;;;;;144.45;15.68;;;18.90;95.70;;;;;;5048211;28;20072;-55
2023/04/29 10:22:49;;;;;;;146.00;17.60;;;19.00;95.90;;;;;;5056516;28;20029;-55
2023/04/29 10:25:16;;;;;;;130.45;15.77;;;19.00;95.90;;;;;;5061401;28;20032;-55
2023/04/29 10:27:43;;;;;;;117.13;14.90;;;19.00;95.90;;;;;;5047720;28;20037;-55
2023/04/29 10:30:12;;;;;;;133.38;15.63;;;19.10;95.70;;;;;;5056130;28;20017;-55
2023/04/29 10:32:42;;;;;;;122.88;13.70;;;19.10;95.60;;;;;;5053103;28;20033;-55
2023/04/29 10:35:09;;;;;;;178.40;20.67;;;19.10;95.30;;;;;;5046065;28;20044;-55
2023/04/29 10:37:39;;;;;;;138.52;15.63;;;19.20;95.20;;;;;;5060936;28;20039;-55
2023/04/29 10:40:07;;;;;;;94.78;10.55;;;19.20;95.00;;;;;;5048957;28;20048;-55
2023/04/29 10:42:46;;;;;;;98.32;10.95;;;19.20;94.90;;;;;;5054325;28;20049;-55
2023/04/29 10:45:30;;;;;;;92.85;11.20;;;19.20;94.80;;;;;;5047265;28;20029;-55
2023/04/29 10:48:05;;;;;;;99.57;11.93;;;19.30;94.70;;;;;;5034526;28;20041;-55
2023/04/29 10:50:30;;;;;;;70.30;8.77;;;19.30;94.60;;;;;;5061185;28;20025;-55
2023/04/29 10:52:56;;;;;;;50.17;7.80;;;19.30;94.80;;;;;;5050627;28;20037;-55
2023/04/29 10:55:23;;;;;;;45.13;5.32;;;19.40;94.00;;;;;;5051371;28;20038;-55
2023/04/29 10:57:51;;;;;;;38.22;5.47;;;19.40;92.90;;;;;;5059879;28;20025;-54
2023/04/29 11:00:26;;;;;;;37.42;4.80;;;19.40;92.20;;;;;;5043071;28;20029;-55
2023/04/29 11:02:55;;;;;;;42.28;4.72;;;19.50;91.60;;;;;;5044088;28;20040;-55
2023/04/29 11:05:34;;;;;;;71.22;8.38;;;19.50;91.50;;;;;;5053495;28;20028;-55
2023/04/29 11:08:22;;;;;;;47.08;6.50;;;19.50;92.00;;;;;;5058060;28;20030;-53
2023/04/29 11:10:51;;;;;;;75.10;9.05;;;19.50;92.40;;;;;;5046730;28;20454;-54
2023/04/29 11:13:24;;;;;;;58.95;8.20;;;19.60;92.80;;;;;;5060054;28;20033;-54
2023/04/29 11:15:51;;;;;;;73.72;8.88;;;19.60;92.90;;;;;;5040430;28;20029;-55
2023/04/29 11:18:17;;;;;;;62.58;9.07;;;19.60;93.00;;;;;;5037547;28;20065;-54
2023/04/29 11:21:05;;;;;;;61.10;8.35;;;19.60;93.10;;;;;;5049290;28;20060;-54
2023/04/29 11:23:33;;;;;;;86.05;11.07;;;19.60;92.90;;;;;;5060238;28;20033;-55
2023/04/29 11:25:58;;;;;;;73.28;9.50;;;19.60;93.00;;;;;;5043319;28;20064;-54
2023/04/29 11:28:24;;;;;;;62.58;9.55;;;19.60;93.00;;;;;;5042375;28;20033;-52
2023/04/29 11:30:50;;;;;;;62.28;9.27;;;19.70;92.90;;;;;;5042700;28;20021;-54
2023/04/29 11:33:16;;;;;;;102.88;11.48;;;19.70;92.80;;;;;;5042113;28;20084;-54
2023/04/29 11:35:41;;;;;;;87.93;11.27;;;19.80;92.70;;;;;;5042583;28;20035;-54
2023/04/29 11:38:07;;;;;;;110.07;14.38;;;19.80;92.60;;;;;;5042017;28;20049;-54
2023/04/29 11:40:32;;;;;;;94.90;12.32;;;19.90;92.60;;;;;;5040589;28;20037;-54
2023/04/29 11:42:58;;;;;;;80.82;10.38;;;20.00;92.40;;;;;;5042328;28;20029;-54
2023/04/29 11:45:23;;;;;;;114.75;12.05;;;20.00;92.20;;;;;;5045774;28;20044;-55
2023/04/29 11:47:49;;;;;;;78.85;9.98;;;20.10;92.10;;;;;;5046066;28;20037;-54
2023/04/29 11:50:17;;;;;;;77.18;10.45;;;20.20;92.10;;;;;;5046040;28;20609;-54
2023/04/29 11:52:43;;;;;;;94.70;10.40;;;20.20;92.00;;;;;;5047345;28;20032;-54
2023/04/29 11:55:09;;;;;;;67.57;10.50;;;20.20;91.80;;;;;;5045885;28;20037;-54
2023/04/29 11:57:35;;;;;;;99.95;11.35;;;20.30;91.80;;;;;;5047560;28;20025;-54
2023/04/29 12:00:01;;;;;;;95.50;11.30;;;20.30;91.70;;;;;;5045966;28;20022;-55
2023/04/29 12:02:33;;;;;;;112.63;12.55;;;20.40;91.70;;;;;;5047551;28;20108;-54
2023/04/29 12:05:02;;;;;;;107.88;12.02;;;20.50;91.60;;;;;;5047364;28;20025;-55
2023/04/29 12:07:27;;;;;;;88.45;10.85;;;20.50;91.50;;;;;;5047459;28;20036;-55
2023/04/29 12:09:53;;;;;;;82.05;10.13;;;20.70;91.50;;;;;;5046110;28;20021;-55
2023/04/29 12:12:20;;;;;;;106.13;11.95;;;20.70;91.30;;;;;;5047228;28;20034;-55
2023/04/29 12:14:45;;;;;;;95.10;10.98;;;20.80;91.30;;;;;;5045825;28;20032;-55
2023/04/29 12:17:11;;;;;;;119.63;13.32;;;20.80;91.10;;;;;;5045792;28;20093;-55
2023/04/29 12:19:38;;;;;;;91.18;10.63;;;20.90;91.00;;;;;;5045475;28;20033;-55
2023/04/29 12:22:03;;;;;;;90.47;11.18;;;20.90;90.80;;;;;;5043793;28;20063;-55
2023/04/29 12:24:34;;;;;;;79.93;10.32;;;21.00;90.70;;;;;;5048010;28;20513;-55
2023/04/29 12:27:01;;;;;;;80.97;10.02;;;20.90;90.60;;;;;;5045675;28;20025;-55
2023/04/29 12:29:27;;;;;;;66.10;8.88;;;21.00;90.30;;;;;;5045853;28;20029;-55
2023/04/29 12:31:54;;;;;;;59.13;7.97;;;21.00;90.10;;;;;;5045405;28;20470;-55
2023/04/29 12:34:30;;;;;;;64.45;8.75;;;21.00;90.00;;;;;;5045281;28;20064;-55
2023/04/29 12:36:59;;;;;;;124.13;14.20;;;21.00;89.60;;;;;;5047040;28;20121;-55